Aviation Digital Data Service (ADDS)

Output produced by METARs form (0418 UTC 19 February 2019)
found at http://www.aviationweather.gov/metar/data/
 
METAR text: VTPM 190400Z VRB01KT 7000 NSC 27/15 Q1016 NOSIG
Conditions at: VTPM (MAE SOT/TAK , TH) observed 0400 UTC 19 February 2019
Temperature: 27.0°C (81°F)
Dewpoint: 15.0°C (59°F) [RH = 48%]
Pressure (altimeter): 30.00 inches Hg (1016.0 mb)
Winds: variable direction winds at 1 MPH (1 knots; 0.5 m/s)
Visibility: 4 miles ( 7 km)
Ceiling: at least 12,000 feet AGL
Clouds: sky clear below 12,000 feet AGL
Weather: no significant weather observed at this time

METAR text: VTPM 190300Z VRB01KT 6000 NSC 25/17 Q1017 NOSIG
Conditions at: VTPM (MAE SOT/TAK , TH) observed 0300 UTC 19 February 2019
Temperature: 25.0°C (77°F)
Dewpoint: 17.0°C (63°F) [RH = 61%]
Pressure (altimeter): 30.03 inches Hg (1017.0 mb)
Winds: variable direction winds at 1 MPH (1 knots; 0.5 m/s)
Visibility: 4 miles ( 6 km)
Ceiling: at least 12,000 feet AGL
Clouds: sky clear below 12,000 feet AGL
Weather: no significant weather observed at this time

METAR text: VTPM 190200Z VRB01KT 6000 NSC 21/17 Q1016 NOSIG
Conditions at: VTPM (MAE SOT/TAK , TH) observed 0200 UTC 19 February 2019
Temperature: 21.0°C (70°F)
Dewpoint: 17.0°C (63°F) [RH = 78%]
Pressure (altimeter): 30.00 inches Hg (1016.0 mb)
Winds: variable direction winds at 1 MPH (1 knots; 0.5 m/s)
Visibility: 4 miles ( 6 km)
Ceiling: at least 12,000 feet AGL
Clouds: sky clear below 12,000 feet AGL
Weather: no significant weather observed at this time

METAR text: VTPM 190100Z 00000KT 6000 FEW030 SCT080 19/16 Q1015 NOSIG
Conditions at: VTPM (MAE SOT/TAK , TH) observed 0100 UTC 19 February 2019
Temperature: 19.0°C (66°F)
Dewpoint: 16.0°C (61°F) [RH = 83%]
Pressure (altimeter): 29.97 inches Hg (1015.0 mb)
Winds: calm
Visibility: 4 miles ( 6 km)
Ceiling: at least 12,000 feet AGL
Clouds: few clouds at 3000 feet AGL
scattered clouds at 8000 feet AGL
Weather: no significant weather observed at this time

METAR text: VTPM 190000Z 00000KT 5000 BR FEW025 SCT080 18/16 Q1014 NOSIG
Conditions at: VTPM (MAE SOT/TAK , TH) observed 0000 UTC 19 February 2019
Temperature: 18.0°C (64°F)
Dewpoint: 16.0°C (61°F) [RH = 88%]
Pressure (altimeter): 29.94 inches Hg (1014.0 mb)
Winds: calm
Visibility: 3 miles ( 5 km)
Ceiling: at least 12,000 feet AGL
Clouds: few clouds at 2500 feet AGL
scattered clouds at 8000 feet AGL
Weather: BR  (mist)

METAR text: VTPM 182300Z 00000KT 8000 FEW025 SCT080 18/15 Q1013 NOSIG
Conditions at: VTPM (MAE SOT/TAK , TH) observed 2300 UTC 18 February 2019
Temperature: 18.0°C (64°F)
Dewpoint: 15.0°C (59°F) [RH = 83%]
Pressure (altimeter): 29.91 inches Hg (1013.0 mb)
Winds: calm
Visibility: 5 miles ( 8 km)
Ceiling: at least 12,000 feet AGL
Clouds: few clouds at 2500 feet AGL
scattered clouds at 8000 feet AGL
Weather: no significant weather observed at this time

METAR text: VTPM 181100Z 27006KT 9999 BKN030 29/18 Q1010 NOSIG
Conditions at: VTPM (MAE SOT/TAK , TH) observed 1100 UTC 18 February 2019
Temperature: 29.0°C (84°F)
Dewpoint: 18.0°C (64°F) [RH = 52%]
Pressure (altimeter): 29.82 inches Hg (1010.0 mb)
Winds: from the W (270 degrees) at 7 MPH (6 knots; 3.1 m/s)
Visibility: 6 or more miles (10+ km)
Ceiling: 3000 feet AGL
Clouds: broken clouds at 3000 feet AGL
Weather: no significant weather observed at this time

METAR text: VTPM 181000Z 24009KT 9999 SCT030 30/16 Q1010 NOSIG
Conditions at: VTPM (MAE SOT/TAK , TH) observed 1000 UTC 18 February 2019
Temperature: 30.0°C (86°F)
Dewpoint: 16.0°C (61°F) [RH = 43%]
Pressure (altimeter): 29.82 inches Hg (1010.0 mb)
Winds: from the WSW (240 degrees) at 10 MPH (9 knots; 4.6 m/s)
Visibility: 6 or more miles (10+ km)
Ceiling: at least 12,000 feet AGL
Clouds: scattered clouds at 3000 feet AGL
Weather: no significant weather observed at this time

METAR text: VTPM 180900Z 25009KT 9999 SCT030 31/15 Q1010 NOSIG
Conditions at: VTPM (MAE SOT/TAK , TH) observed 0900 UTC 18 February 2019
Temperature: 31.0°C (88°F)
Dewpoint: 15.0°C (59°F) [RH = 38%]
Pressure (altimeter): 29.82 inches Hg (1010.0 mb)
Winds: from the WSW (250 degrees) at 10 MPH (9 knots; 4.6 m/s)
Visibility: 6 or more miles (10+ km)
Ceiling: at least 12,000 feet AGL
Clouds: scattered clouds at 3000 feet AGL
Weather: no significant weather observed at this time

METAR text: VTPM 180800Z 26010KT 240V310 9999 SCT030 32/15 Q1011 NOSIG
Conditions at: VTPM (MAE SOT/TAK , TH) observed 0800 UTC 18 February 2019
Temperature: 32.0°C (90°F)
Dewpoint: 15.0°C (59°F) [RH = 36%]
Pressure (altimeter): 29.85 inches Hg (1011.0 mb)
Winds: from the W (260 degrees) at 12 MPH (10 knots; 5.1 m/s)
Visibility: 6 or more miles (10+ km)
Ceiling: at least 12,000 feet AGL
Clouds: scattered clouds at 3000 feet AGL
Weather: no significant weather observed at this time

METAR text: VTPM 180700Z 24010KT 200V270 9999 SCT030 31/15 Q1012 NOSIG
Conditions at: VTPM (MAE SOT/TAK , TH) observed 0700 UTC 18 February 2019
Temperature: 31.0°C (88°F)
Dewpoint: 15.0°C (59°F) [RH = 38%]
Pressure (altimeter): 29.88 inches Hg (1012.0 mb)
Winds: from the WSW (240 degrees) at 12 MPH (10 knots; 5.1 m/s)
Visibility: 6 or more miles (10+ km)
Ceiling: at least 12,000 feet AGL
Clouds: scattered clouds at 3000 feet AGL
Weather: no significant weather observed at this time

METAR text: VTPM 180600Z 26011KT 230V300 9999 SCT030 31/14 Q1013 NOSIG
Conditions at: VTPM (MAE SOT/TAK , TH) observed 0600 UTC 18 February 2019
Temperature: 31.0°C (88°F)
Dewpoint: 14.0°C (57°F) [RH = 36%]
Pressure (altimeter): 29.91 inches Hg (1013.0 mb)
Winds: from the W (260 degrees) at 13 MPH (11 knots; 5.7 m/s)
Visibility: 6 or more miles (10+ km)
Ceiling: at least 12,000 feet AGL
Clouds: scattered clouds at 3000 feet AGL
Weather: no significant weather observed at this time

METAR text: VTPM 180500Z 18003KT 9999 SCT030 29/17 Q1014 NOSIG
Conditions at: VTPM (MAE SOT/TAK , TH) observed 0500 UTC 18 February 2019
Temperature: 29.0°C (84°F)
Dewpoint: 17.0°C (63°F) [RH = 48%]
Pressure (altimeter): 29.94 inches Hg (1014.0 mb)
Winds: from the S (180 degrees) at 3 MPH (3 knots; 1.5 m/s)
Visibility: 6 or more miles (10+ km)
Ceiling: at least 12,000 feet AGL
Clouds: scattered clouds at 3000 feet AGL
Weather: no significant weather observed at this time

METAR text: VTPM 180400Z 15007KT 110V180 9999 SCT030 28/16 Q1015 NOSIG
Conditions at: VTPM (MAE SOT/TAK , TH) observed 0400 UTC 18 February 2019
Temperature: 28.0°C (82°F)
Dewpoint: 16.0°C (61°F) [RH = 48%]
Pressure (altimeter): 29.97 inches Hg (1015.0 mb)
Winds: from the SSE (150 degrees) at 8 MPH (7 knots; 3.6 m/s)
Visibility: 6 or more miles (10+ km)
Ceiling: at least 12,000 feet AGL
Clouds: scattered clouds at 3000 feet AGL
Weather: no significant weather observed at this time

METAR text: VTPM 180300Z 16007KT 120V190 8000 FEW030 26/16 Q1015 NOSIG
Conditions at: VTPM (MAE SOT/TAK , TH) observed 0300 UTC 18 February 2019
Temperature: 26.0°C (79°F)
Dewpoint: 16.0°C (61°F) [RH = 54%]
Pressure (altimeter): 29.97 inches Hg (1015.0 mb)
Winds: from the SSE (160 degrees) at 8 MPH (7 knots; 3.6 m/s)
Visibility: 5 miles ( 8 km)
Ceiling: at least 12,000 feet AGL
Clouds: few clouds at 3000 feet AGL
Weather: no significant weather observed at this time

METAR text: VTPM 180200Z 16005KT 120V200 8000 SCT030 23/15 Q1014 NOSIG
Conditions at: VTPM (MAE SOT/TAK , TH) observed 0200 UTC 18 February 2019
Temperature: 23.0°C (73°F)
Dewpoint: 15.0°C (59°F) [RH = 61%]
Pressure (altimeter): 29.94 inches Hg (1014.0 mb)
Winds: from the SSE (160 degrees) at 6 MPH (5 knots; 2.6 m/s)
Visibility: 5 miles ( 8 km)
Ceiling: at least 12,000 feet AGL
Clouds: scattered clouds at 3000 feet AGL
Weather: no significant weather observed at this time

METAR text: VTPM 180100Z 14004KT 110V180 8000 SCT030 21/15 Q1013 NOSIG
Conditions at: VTPM (MAE SOT/TAK , TH) observed 0100 UTC 18 February 2019
Temperature: 21.0°C (70°F)
Dewpoint: 15.0°C (59°F) [RH = 69%]
Pressure (altimeter): 29.91 inches Hg (1013.0 mb)
Winds: from the SE (140 degrees) at 5 MPH (4 knots; 2.1 m/s)
Visibility: 5 miles ( 8 km)
Ceiling: at least 12,000 feet AGL
Clouds: scattered clouds at 3000 feet AGL
Weather: no significant weather observed at this time

METAR text: VTPM 180000Z 15004KT 100V170 8000 FEW030 SCT080 20/15 Q1012 NOSIG
Conditions at: VTPM (MAE SOT/TAK , TH) observed 0000 UTC 18 February 2019
Temperature: 20.0°C (68°F)
Dewpoint: 15.0°C (59°F) [RH = 73%]
Pressure (altimeter): 29.88 inches Hg (1012.0 mb)
Winds: from the SSE (150 degrees) at 5 MPH (4 knots; 2.1 m/s)
Visibility: 5 miles ( 8 km)
Ceiling: at least 12,000 feet AGL
Clouds: few clouds at 3000 feet AGL
scattered clouds at 8000 feet AGL
Weather: no significant weather observed at this time

METAR text: VTPM 172300Z VRB02KT 8000 NSC 19/15 Q1012 NOSIG
Conditions at: VTPM (MAE SOT/TAK , TH) observed 2300 UTC 17 February 2019
Temperature: 19.0°C (66°F)
Dewpoint: 15.0°C (59°F) [RH = 78%]
Pressure (altimeter): 29.88 inches Hg (1012.0 mb)
Winds: variable direction winds at 2 MPH (2 knots; 1.0 m/s)
Visibility: 5 miles ( 8 km)
Ceiling: at least 12,000 feet AGL
Clouds: sky clear below 12,000 feet AGL
Weather: no significant weather observed at this time

Forecast for: VTPM (MAE SOT/TAK , TH)
Text: TAF VTPM 182300Z 1900/1924 25005KT 9999 FEW030
Forecast period: 0000 UTC 19 February 2019 to 0000 UTC 20 February 2019
Forecast type: FROM: standard forecast or significant change
Winds: from the WSW (250 degrees) at 6 MPH (5 knots; 2.6 m/s)
Visibility: 6 or more miles 10+ km)
Ceiling: at least 12,000 feet AGL
Clouds: few clouds at 3000 feet AGL
Weather: no significant weather forecast for this period